Ashville, Alabama
Current Conditions -  °F | °C
As of 8:15 AM on Thursday 18 Dec 2014 (Local Time) from KGAD Reporting Station
Overcast Overcast  
Wind Chill:   Ceiling: 7500
Heat Index:   Visibility: 10mi
Dew Point: -1°   Wind: 0mph
Humidity: 75%   Direction: NA
Pressure: 30.23"   Gusts: NA
Location:  33.84°N, 86.25°W
Report Text: KGAD 181415Z 00000KT 10SM SCT060 BKN075 OVC090 03/M01 A3023 RMK AO1
Loading
Personal Weather Stations






























Interactive Weather Map New forecast layout! Learn more

10-Day Weather Forecast

Advertisements
Track Severe Weather on mobile